sensor_id;sensor_type;location;lat;lon;timestamp;pressure;altitude;pressure_sealevel;temperature;humidity
2000;BME280;1001;48.87406500;9.59633600;2022-09-02T00:00:03;95207.97;;;14.25;87.04
2000;BME280;1001;48.87406500;9.59633600;2022-09-02T00:02:33;95210.88;;;14.23;86.86
2000;BME280;1001;48.87406500;9.59633600;2022-09-02T00:05:00;95205.31;;;14.20;87.03
2000;BME280;1001;48.87406500;9.59633600;2022-09-02T00:07:26;95199.81;;;14.21;86.73
2000;BME280;1001;48.87406500;9.59633600;2022-09-02T00:09:53;95197.66;;;14.18;86.91
2000;BME280;1001;48.87406500;9.59633600;2022-09-02T00:12:19;95187.91;;;14.14;86.62
2000;BME280;1001;48.87406500;9.59633600;2022-09-02T00:14:46;95194.44;;;14.11;86.88
2000;BME280;1001;48.87406500;9.59633600;2022-09-02T00:17:13;95187.03;;;14.08;86.96
2000;BME280;1001;48.87406500;9.59633600;2022-09-02T00:19:41;95189.13;;;14.06;87.03
2000;BME280;1001;48.87406500;9.59633600;2022-09-02T00:22:08;95183.63;;;14.08;86.85
2000;BME280;1001;48.87406500;9.59633600;2022-09-02T00:24:34;95177.28;;;14.04;86.98
2000;BME280;1001;48.87406500;9.59633600;2022-09-02T00:27:01;95174.91;;;14.02;87.28
2000;BME280;1001;48.87406500;9.59633600;2022-09-02T00:29:29;95178.81;;;14.00;87.56
2000;BME280;1001;48.87406500;9.59633600;2022-09-02T00:31:56;95165.81;;;13.88;87.13
2000;BME280;1001;48.87406500;9.59633600;2022-09-02T00:34:23;95160.56;;;13.88;87.29
2000;BME280;1001;48.87406500;9.59633600;2022-09-02T00:36:51;95158.97;;;13.87;87.26
2000;BME280;1001;48.87406500;9.59633600;2022-09-02T00:39:18;95169.47;;;13.87;87.40
2000;BME280;1001;48.87406500;9.59633600;2022-09-02T00:41:45;95168.13;;;13.85;87.23
2000;BME280;1001;48.87406500;9.59633600;2022-09-02T00:44:14;95156.59;;;13.86;87.23
2000;BME280;1001;48.87406500;9.59633600;2022-09-02T00:46:41;95166.50;;;13.79;87.31
2000;BME280;1001;48.87406500;9.59633600;2022-09-02T00:49:11;95155.19;;;13.78;87.49
2000;BME280;1001;48.87406500;9.59633600;2022-09-02T00:51:41;95160.75;;;13.82;86.84
2000;BME280;1001;48.87406500;9.59633600;2022-09-02T00:54:12;95153.84;;;13.76;87.12
2000;BME280;1001;48.87406500;9.59633600;2022-09-02T00:56:41;95145.84;;;13.65;87.79
2000;BME280;1001;48.87406500;9.59633600;2022-09-02T00:59:12;95147.03;;;13.75;87.67
2000;BME280;1001;48.87406500;9.59633600;2022-09-02T01:01:40;95147.72;;;13.70;87.33
2000;BME280;1001;48.87406500;9.59633600;2022-09-02T01:04:07;95161.19;;;13.74;87.63
2000;BME280;1001;48.87406500;9.59633600;2022-09-02T01:06:34;95153.56;;;13.72;87.35
2000;BME280;1001;48.87406500;9.59633600;2022-09-02T01:09:05;95153.72;;;13.65;87.27
2000;BME280;1001;48.87406500;9.59633600;2022-09-02T01:11:39;95146.41;;;13.68;87.44
2000;BME280;1001;48.87406500;9.59633600;2022-09-02T01:14:07;95153.56;;;13.72;87.63
2000;BME280;1001;48.87406500;9.59633600;2022-09-02T01:16:38;95156.66;;;13.69;87.27
2000;BME280;1001;48.87406500;9.59633600;2022-09-02T01:19:10;95157.41;;;13.64;87.41
2000;BME280;1001;48.87406500;9.59633600;2022-09-02T01:21:39;95145.34;;;13.69;87.57
2000;BME280;1001;48.87406500;9.59633600;2022-09-02T01:24:07;95159.50;;;13.62;87.53
2000;BME280;1001;48.87406500;9.59633600;2022-09-02T01:26:34;95160.53;;;13.61;87.37
2000;BME280;1001;48.87406500;9.59633600;2022-09-02T01:29:00;95158.63;;;13.57;87.91
2000;BME280;1001;48.87406500;9.59633600;2022-09-02T01:31:28;95150.69;;;13.52;87.77
2000;BME280;1001;48.87406500;9.59633600;2022-09-02T01:33:54;95156.31;;;13.39;88.66
2000;BME280;1001;48.87406500;9.59633600;2022-09-02T01:36:22;95150.81;;;13.40;88.91
2000;BME280;1001;48.87406500;9.59633600;2022-09-02T01:38:49;95147.16;;;13.41;89.55
2000;BME280;1001;48.87406500;9.59633600;2022-09-02T01:41:17;95149.06;;;13.24;89.57
2000;BME280;1001;48.87406500;9.59633600;2022-09-02T01:43:43;95152.16;;;13.21;89.89
2000;BME280;1001;48.87406500;9.59633600;2022-09-02T01:46:10;95147.09;;;13.15;90.15
2000;BME280;1001;48.87406500;9.59633600;2022-09-02T01:48:37;95149.84;;;13.25;90.35
2000;BME280;1001;48.87406500;9.59633600;2022-09-02T01:51:04;95145.88;;;13.22;89.83
2000;BME280;1001;48.87406500;9.59633600;2022-09-02T01:53:31;95140.84;;;13.21;90.42
2000;BME280;1001;48.87406500;9.59633600;2022-09-02T01:55:59;95144.03;;;13.23;89.95
2000;BME280;1001;48.87406500;9.59633600;2022-09-02T01:58:27;95139.69;;;13.12;90.13
2000;BME280;1001;48.87406500;9.59633600;2022-09-02T02:00:54;95143.41;;;13.16;90.75
2000;BME280;1001;48.87406500;9.59633600;2022-09-02T02:03:21;95137.53;;;13.09;90.71
2000;BME280;1001;48.87406500;9.59633600;2022-09-02T02:05:48;95141.84;;;12.98;91.08
2000;BME280;1001;48.87406500;9.59633600;2022-09-02T02:08:15;95147.56;;;12.95;91.52
2000;BME280;1001;48.87406500;9.59633600;2022-09-02T02:10:42;95140.34;;;12.85;91.77
2000;BME280;1001;48.87406500;9.59633600;2022-09-02T02:13:10;95145.31;;;12.82;92.06
2000;BME280;1001;48.87406500;9.59633600;2022-09-02T02:15:39;95148.06;;;12.75;92.28
2000;BME280;1001;48.87406500;9.59633600;2022-09-02T02:18:06;95150.22;;;12.78;92.14
2000;BME280;1001;48.87406500;9.59633600;2022-09-02T02:20:33;95142.59;;;12.77;93.21
2000;BME280;1001;48.87406500;9.59633600;2022-09-02T02:23:00;95141.69;;;12.88;92.35
2000;BME280;1001;48.87406500;9.59633600;2022-09-02T02:25:27;95142.78;;;12.92;91.96
2000;BME280;1001;48.87406500;9.59633600;2022-09-02T02:27:54;95144.72;;;12.96;91.60
2000;BME280;1001;48.87406500;9.59633600;2022-09-02T02:30:21;95138.84;;;12.89;91.52
2000;BME280;1001;48.87406500;9.59633600;2022-09-02T02:32:49;95145.31;;;12.82;91.79
2000;BME280;1001;48.87406500;9.59633600;2022-09-02T02:35:17;95149.19;;;12.79;92.61
2000;BME280;1001;48.87406500;9.59633600;2022-09-02T02:37:44;95146.03;;;12.77;92.60
2000;BME280;1001;48.87406500;9.59633600;2022-09-02T02:40:14;95148.31;;;12.74;92.84
2000;BME280;1001;48.87406500;9.59633600;2022-09-02T02:42:41;95140.34;;;12.85;92.15
2000;BME280;1001;48.87406500;9.59633600;2022-09-02T02:45:08;95145.06;;;12.83;92.15
2000;BME280;1001;48.87406500;9.59633600;2022-09-02T02:47:37;95141.88;;;12.81;92.21
2000;BME280;1001;48.87406500;9.59633600;2022-09-02T02:50:09;95140.78;;;12.77;92.04
2000;BME280;1001;48.87406500;9.59633600;2022-09-02T02:52:36;95138.78;;;12.84;91.83
2000;BME280;1001;48.87406500;9.59633600;2022-09-02T02:55:03;95135.38;;;12.67;91.39
2000;BME280;1001;48.87406500;9.59633600;2022-09-02T02:57:30;95129.97;;;12.57;92.09
2000;BME280;1001;48.87406500;9.59633600;2022-09-02T02:59:57;95139.56;;;12.68;92.57
2000;BME280;1001;48.87406500;9.59633600;2022-09-02T03:02:27;95132.69;;;12.62;92.43
2000;BME280;1001;48.87406500;9.59633600;2022-09-02T03:04:58;95135.03;;;12.64;92.11
2000;BME280;1001;48.87406500;9.59633600;2022-09-02T03:07:27;95128.00;;;12.48;92.11
2000;BME280;1001;48.87406500;9.59633600;2022-09-02T03:09:54;95130.78;;;12.24;93.19
2000;BME280;1001;48.87406500;9.59633600;2022-09-02T03:12:20;95127.91;;;12.26;93.96
2000;BME280;1001;48.87406500;9.59633600;2022-09-02T03:14:48;95130.53;;;12.26;94.02
2000;BME280;1001;48.87406500;9.59633600;2022-09-02T03:17:15;95127.06;;;12.37;93.66
2000;BME280;1001;48.87406500;9.59633600;2022-09-02T03:19:42;95124.91;;;12.34;93.33
2000;BME280;1001;48.87406500;9.59633600;2022-09-02T03:22:08;95132.31;;;12.37;92.85
2000;BME280;1001;48.87406500;9.59633600;2022-09-02T03:24:37;95127.91;;;12.26;92.76
2000;BME280;1001;48.87406500;9.59633600;2022-09-02T03:27:04;95121.09;;;12.25;93.01
2000;BME280;1001;48.87406500;9.59633600;2022-09-02T03:29:30;95134.03;;;12.15;93.21
2000;BME280;1001;48.87406500;9.59633600;2022-09-02T03:31:57;95133.00;;;11.99;93.76
2000;BME280;1001;48.87406500;9.59633600;2022-09-02T03:34:25;95133.00;;;11.99;93.86
2000;BME280;1001;48.87406500;9.59633600;2022-09-02T03:36:51;95134.72;;;11.94;94.42
2000;BME280;1001;48.87406500;9.59633600;2022-09-02T03:39:18;95129.38;;;11.89;94.65
2000;BME280;1001;48.87406500;9.59633600;2022-09-02T03:41:46;95123.59;;;11.87;94.91
2000;BME280;1001;48.87406500;9.59633600;2022-09-02T03:44:15;95129.94;;;11.91;95.28
2000;BME280;1001;48.87406500;9.59633600;2022-09-02T03:46:41;95129.28;;;11.84;95.74
2000;BME280;1001;48.87406500;9.59633600;2022-09-02T03:49:08;95117.84;;;11.73;95.87
2000;BME280;1001;48.87406500;9.59633600;2022-09-02T03:51:38;95119.13;;;11.71;96.32
2000;BME280;1001;48.87406500;9.59633600;2022-09-02T03:54:05;95118.09;;;11.60;96.41
2000;BME280;1001;48.87406500;9.59633600;2022-09-02T03:56:32;95126.19;;;11.58;96.75
2000;BME280;1001;48.87406500;9.59633600;2022-09-02T03:59:00;95120.50;;;11.50;97.43
2000;BME280;1001;48.87406500;9.59633600;2022-09-02T04:01:27;95111.22;;;11.42;97.86
2000;BME280;1001;48.87406500;9.59633600;2022-09-02T04:03:55;95116.69;;;11.41;97.86
2000;BME280;1001;48.87406500;9.59633600;2022-09-02T04:06:23;95121.47;;;11.44;98.31
2000;BME280;1001;48.87406500;9.59633600;2022-09-02T04:08:50;95118.94;;;11.49;98.49
2000;BME280;1001;48.87406500;9.59633600;2022-09-02T04:11:18;95114.50;;;11.49;97.85
2000;BME280;1001;48.87406500;9.59633600;2022-09-02T04:13:46;95114.25;;;11.51;97.86
2000;BME280;1001;48.87406500;9.59633600;2022-09-02T04:16:16;95111.38;;;11.64;97.22
2000;BME280;1001;48.87406500;9.59633600;2022-09-02T04:18:44;95110.63;;;11.52;97.13
2000;BME280;1001;48.87406500;9.59633600;2022-09-02T04:21:11;95109.19;;;11.44;97.44
2000;BME280;1001;48.87406500;9.59633600;2022-09-02T04:23:38;95104.84;;;11.38;98.05
2000;BME280;1001;48.87406500;9.59633600;2022-09-02T04:26:07;95101.63;;;11.48;98.01
2000;BME280;1001;48.87406500;9.59633600;2022-09-02T04:28:34;95106.47;;;11.39;97.94
2000;BME280;1001;48.87406500;9.59633600;2022-09-02T04:31:03;95111.94;;;11.38;98.55
2000;BME280;1001;48.87406500;9.59633600;2022-09-02T04:33:31;95114.66;;;11.31;98.70
2000;BME280;1001;48.87406500;9.59633600;2022-09-02T04:35:58;95109.44;;;11.31;99.41
2000;BME280;1001;48.87406500;9.59633600;2022-09-02T04:38:25;95109.31;;;11.26;99.62
2000;BME280;1001;48.87406500;9.59633600;2022-09-02T04:40:53;95113.78;;;11.26;99.90
2000;BME280;1001;48.87406500;9.59633600;2022-09-02T04:43:19;95113.22;;;11.24;99.79
2000;BME280;1001;48.87406500;9.59633600;2022-09-02T04:45:46;95111.97;;;11.15;100.00
2000;BME280;1001;48.87406500;9.59633600;2022-09-02T04:48:13;95119.94;;;11.20;100.00
2000;BME280;1001;48.87406500;9.59633600;2022-09-02T04:50:42;95120.88;;;11.14;100.00
2000;BME280;1001;48.87406500;9.59633600;2022-09-02T04:53:09;95113.31;;;11.29;100.00
2000;BME280;1001;48.87406500;9.59633600;2022-09-02T04:55:38;95111.78;;;11.44;100.00
2000;BME280;1001;48.87406500;9.59633600;2022-09-02T04:58:06;95109.53;;;11.64;100.00
2000;BME280;1001;48.87406500;9.59633600;2022-09-02T05:00:32;95114.13;;;11.86;99.57
2000;BME280;1001;48.87406500;9.59633600;2022-09-02T05:02:59;95114.22;;;11.91;98.08
2000;BME280;1001;48.87406500;9.59633600;2022-09-02T05:05:26;95111.28;;;11.87;97.05
2000;BME280;1001;48.87406500;9.59633600;2022-09-02T05:07:54;95109.69;;;11.86;97.45
2000;BME280;1001;48.87406500;9.59633600;2022-09-02T05:10:21;95111.94;;;11.94;97.29
2000;BME280;1001;48.87406500;9.59633600;2022-09-02T05:12:48;95118.19;;;11.93;97.14
2000;BME280;1001;48.87406500;9.59633600;2022-09-02T05:15:16;95119.47;;;11.91;96.77
2000;BME280;1001;48.87406500;9.59633600;2022-09-02T05:17:43;95120.59;;;11.95;97.12
2000;BME280;1001;48.87406500;9.59633600;2022-09-02T05:20:10;95123.16;;;12.06;97.66
2000;BME280;1001;48.87406500;9.59633600;2022-09-02T05:22:38;95112.72;;;12.11;97.65
2000;BME280;1001;48.87406500;9.59633600;2022-09-02T05:25:07;95119.81;;;12.11;98.22
2000;BME280;1001;48.87406500;9.59633600;2022-09-02T05:27:35;95119.63;;;12.01;98.05
2000;BME280;1001;48.87406500;9.59633600;2022-09-02T05:30:03;95110.97;;;12.00;97.66
2000;BME280;1001;48.87406500;9.59633600;2022-09-02T05:32:30;95120.47;;;12.18;97.05
2000;BME280;1001;48.87406500;9.59633600;2022-09-02T05:34:56;95118.47;;;12.25;97.11
2000;BME280;1001;48.87406500;9.59633600;2022-09-02T05:37:23;95118.63;;;12.18;97.42
2000;BME280;1001;48.87406500;9.59633600;2022-09-02T05:39:50;95122.53;;;12.16;98.03
2000;BME280;1001;48.87406500;9.59633600;2022-09-02T05:42:18;95116.41;;;12.10;98.12
2000;BME280;1001;48.87406500;9.59633600;2022-09-02T05:44:46;95117.09;;;12.06;98.68
2000;BME280;1001;48.87406500;9.59633600;2022-09-02T05:47:12;95119.47;;;12.07;99.04
2000;BME280;1001;48.87406500;9.59633600;2022-09-02T05:49:39;95118.13;;;12.05;99.11
2000;BME280;1001;48.87406500;9.59633600;2022-09-02T05:52:06;95108.69;;;12.04;99.82
2000;BME280;1001;48.87406500;9.59633600;2022-09-02T05:54:37;95105.34;;;12.08;100.00
2000;BME280;1001;48.87406500;9.59633600;2022-09-02T05:57:06;95107.91;;;12.20;100.00
2000;BME280;1001;48.87406500;9.59633600;2022-09-02T05:59:37;95109.34;;;12.27;99.55
2000;BME280;1001;48.87406500;9.59633600;2022-09-02T06:02:07;95113.31;;;12.30;99.11
2000;BME280;1001;48.87406500;9.59633600;2022-09-02T06:04:36;95105.50;;;12.35;99.15
2000;BME280;1001;48.87406500;9.59633600;2022-09-02T06:07:03;95103.84;;;12.46;99.11
2000;BME280;1001;48.87406500;9.59633600;2022-09-02T06:09:30;95103.28;;;12.60;99.08
2000;BME280;1001;48.87406500;9.59633600;2022-09-02T06:11:56;95110.84;;;12.78;98.14
2000;BME280;1001;48.87406500;9.59633600;2022-09-02T06:14:24;95115.22;;;12.89;98.19
2000;BME280;1001;48.87406500;9.59633600;2022-09-02T06:16:53;95103.28;;;12.98;97.43
2000;BME280;1001;48.87406500;9.59633600;2022-09-02T06:19:21;95108.78;;;13.19;96.05
2000;BME280;1001;48.87406500;9.59633600;2022-09-02T06:21:50;95112.69;;;13.38;96.03
2000;BME280;1001;48.87406500;9.59633600;2022-09-02T06:24:17;95111.47;;;13.67;94.55
2000;BME280;1001;48.87406500;9.59633600;2022-09-02T06:26:44;95123.41;;;14.06;93.09
2000;BME280;1001;48.87406500;9.59633600;2022-09-02T06:29:11;95112.34;;;14.31;91.43
2000;BME280;1001;48.87406500;9.59633600;2022-09-02T06:31:39;95116.03;;;14.67;90.87
2000;BME280;1001;48.87406500;9.59633600;2022-09-02T06:34:08;95114.88;;;14.94;90.19
2000;BME280;1001;48.87406500;9.59633600;2022-09-02T06:36:39;95122.91;;;15.25;87.24
2000;BME280;1001;48.87406500;9.59633600;2022-09-02T06:39:06;95127.56;;;15.54;85.12
2000;BME280;1001;48.87406500;9.59633600;2022-09-02T06:41:37;95122.06;;;15.76;84.96
2000;BME280;1001;48.87406500;9.59633600;2022-09-02T06:44:06;95126.09;;;16.04;83.12
2000;BME280;1001;48.87406500;9.59633600;2022-09-02T06:46:35;95120.03;;;16.08;80.82
2000;BME280;1001;48.87406500;9.59633600;2022-09-02T06:49:04;95121.38;;;16.36;78.56
2000;BME280;1001;48.87406500;9.59633600;2022-09-02T06:51:34;95121.41;;;16.51;78.66
2000;BME280;1001;48.87406500;9.59633600;2022-09-02T06:54:02;95124.53;;;16.48;79.35
2000;BME280;1001;48.87406500;9.59633600;2022-09-02T06:56:30;95119.78;;;16.45;79.89
2000;BME280;1001;48.87406500;9.59633600;2022-09-02T06:58:57;95119.31;;;16.53;79.59
2000;BME280;1001;48.87406500;9.59633600;2022-09-02T07:01:26;95124.53;;;16.83;78.25
2000;BME280;1001;48.87406500;9.59633600;2022-09-02T07:03:53;95126.91;;;16.90;77.14
2000;BME280;1001;48.87406500;9.59633600;2022-09-02T07:06:41;95124.53;;;16.93;78.80
2000;BME280;1001;48.87406500;9.59633600;2022-09-02T07:09:10;95126.38;;;16.93;78.23
2000;BME280;1001;48.87406500;9.59633600;2022-09-02T07:11:37;95118.19;;;16.94;78.56
2000;BME280;1001;48.87406500;9.59633600;2022-09-02T07:14:04;95113.66;;;17.10;75.88
2000;BME280;1001;48.87406500;9.59633600;2022-09-02T07:16:33;95118.38;;;17.18;74.99
2000;BME280;1001;48.87406500;9.59633600;2022-09-02T07:19:01;95120.19;;;17.28;73.66
2000;BME280;1001;48.87406500;9.59633600;2022-09-02T07:21:27;95129.47;;;17.25;73.45
2000;BME280;1001;48.87406500;9.59633600;2022-09-02T07:23:56;95118.66;;;17.12;73.70
2000;BME280;1001;48.87406500;9.59633600;2022-09-02T07:26:24;95117.34;;;17.09;74.19
2000;BME280;1001;48.87406500;9.59633600;2022-09-02T07:28:51;95116.25;;;17.25;72.88
2000;BME280;1001;48.87406500;9.59633600;2022-09-02T07:31:18;95120.19;;;17.33;72.33
2000;BME280;1001;48.87406500;9.59633600;2022-09-02T07:33:45;95113.03;;;17.43;72.74
2000;BME280;1001;48.87406500;9.59633600;2022-09-02T07:36:12;95116.56;;;17.83;73.42
2000;BME280;1001;48.87406500;9.59633600;2022-09-02T07:38:39;95117.31;;;17.93;72.20
2000;BME280;1001;48.87406500;9.59633600;2022-09-02T07:41:09;95115.53;;;17.79;70.94
2000;BME280;1001;48.87406500;9.59633600;2022-09-02T07:43:38;95117.88;;;17.85;71.11
2000;BME280;1001;48.87406500;9.59633600;2022-09-02T07:46:06;95115.00;;;17.82;71.45
2000;BME280;1001;48.87406500;9.59633600;2022-09-02T07:48:33;95121.25;;;17.96;70.15
2000;BME280;1001;48.87406500;9.59633600;2022-09-02T07:51:01;95110.94;;;17.94;69.02
2000;BME280;1001;48.87406500;9.59633600;2022-09-02T07:53:29;95112.56;;;17.90;69.43
2000;BME280;1001;48.87406500;9.59633600;2022-09-02T07:55:56;95118.41;;;18.26;69.31
2000;BME280;1001;48.87406500;9.59633600;2022-09-02T07:58:25;95120.22;;;18.30;70.00
2000;BME280;1001;48.87406500;9.59633600;2022-09-02T08:00:53;95112.06;;;18.22;67.64
2000;BME280;1001;48.87406500;9.59633600;2022-09-02T08:03:20;95107.66;;;18.12;68.30
2000;BME280;1001;48.87406500;9.59633600;2022-09-02T08:05:47;95109.19;;;18.18;67.98
2000;BME280;1001;48.87406500;9.59633600;2022-09-02T08:08:14;95104.03;;;18.37;67.45
2000;BME280;1001;48.87406500;9.59633600;2022-09-02T08:10:43;95110.06;;;18.43;67.25
2000;BME280;1001;48.87406500;9.59633600;2022-09-02T08:13:11;95106.78;;;18.61;68.13
2000;BME280;1001;48.87406500;9.59633600;2022-09-02T08:15:39;95113.19;;;18.55;67.11
2000;BME280;1001;48.87406500;9.59633600;2022-09-02T08:18:06;95113.47;;;18.82;67.50
2000;BME280;1001;48.87406500;9.59633600;2022-09-02T08:20:33;95110.22;;;18.90;68.42
2000;BME280;1001;48.87406500;9.59633600;2022-09-02T08:23:03;95116.03;;;19.16;67.66
2000;BME280;1001;48.87406500;9.59633600;2022-09-02T08:25:30;95117.44;;;19.08;64.16
2000;BME280;1001;48.87406500;9.59633600;2022-09-02T08:27:57;95117.56;;;19.22;63.13
2000;BME280;1001;48.87406500;9.59633600;2022-09-02T08:30:24;95119.59;;;19.30;63.93
2000;BME280;1001;48.87406500;9.59633600;2022-09-02T08:32:52;95111.53;;;19.16;63.48
2000;BME280;1001;48.87406500;9.59633600;2022-09-02T08:35:19;95118.25;;;19.09;62.46
2000;BME280;1001;48.87406500;9.59633600;2022-09-02T08:37:46;95119.59;;;19.30;61.60
2000;BME280;1001;48.87406500;9.59633600;2022-09-02T08:40:16;95118.50;;;19.36;62.36
2000;BME280;1001;48.87406500;9.59633600;2022-09-02T08:42:45;95116.47;;;19.51;61.25
2000;BME280;1001;48.87406500;9.59633600;2022-09-02T08:45:17;95119.06;;;19.56;60.69
2000;BME280;1001;48.87406500;9.59633600;2022-09-02T08:47:46;95121.66;;;19.61;60.59
2000;BME280;1001;48.87406500;9.59633600;2022-09-02T08:50:17;95127.06;;;19.51;59.12
2000;BME280;1001;48.87406500;9.59633600;2022-09-02T08:52:51;95123.53;;;19.80;58.45
2000;BME280;1001;48.87406500;9.59633600;2022-09-02T08:55:25;95122.63;;;19.89;57.79
2000;BME280;1001;48.87406500;9.59633600;2022-09-02T08:57:53;95122.56;;;19.94;61.60
2000;BME280;1001;48.87406500;9.59633600;2022-09-02T09:00:21;95125.41;;;19.79;56.38
2000;BME280;1001;48.87406500;9.59633600;2022-09-02T09:02:54;95118.59;;;19.92;59.43
2000;BME280;1001;48.87406500;9.59633600;2022-09-02T09:05:32;95119.03;;;19.80;56.74
2000;BME280;1001;48.87406500;9.59633600;2022-09-02T09:08:11;95124.03;;;19.82;56.03
2000;BME280;1001;48.87406500;9.59633600;2022-09-02T09:10:47;95125.28;;;19.89;54.67
2000;BME280;1001;48.87406500;9.59633600;2022-09-02T09:13:43;95123.97;;;20.05;54.99
2000;BME280;1001;48.87406500;9.59633600;2022-09-02T09:16:19;95114.34;;;19.72;54.87
2000;BME280;1001;48.87406500;9.59633600;2022-09-02T09:18:54;95123.19;;;20.05;55.41
2000;BME280;1001;48.87406500;9.59633600;2022-09-02T09:21:26;95122.25;;;20.14;56.21
2000;BME280;1001;48.87406500;9.59633600;2022-09-02T09:23:57;95117.81;;;20.10;55.35
2000;BME280;1001;48.87406500;9.59633600;2022-09-02T09:26:27;95113.72;;;20.17;54.17
2000;BME280;1001;48.87406500;9.59633600;2022-09-02T09:28:55;95112.44;;;20.15;54.03
2000;BME280;1001;48.87406500;9.59633600;2022-09-02T09:31:27;95114.09;;;20.29;52.54
2000;BME280;1001;48.87406500;9.59633600;2022-09-02T09:33:57;95110.00;;;20.37;52.24
2000;BME280;1001;48.87406500;9.59633600;2022-09-02T09:36:43;95107.72;;;20.63;53.95
2000;BME280;1001;48.87406500;9.59633600;2022-09-02T09:39:25;95099.44;;;20.51;53.74
2000;BME280;1001;48.87406500;9.59633600;2022-09-02T09:41:53;95104.09;;;20.40;50.43
2000;BME280;1001;48.87406500;9.59633600;2022-09-02T09:44:42;95101.50;;;20.35;51.29
2000;BME280;1001;48.87406500;9.59633600;2022-09-02T09:47:16;95100.38;;;20.73;53.72
2000;BME280;1001;48.87406500;9.59633600;2022-09-02T09:49:45;95093.69;;;20.89;51.57
2000;BME280;1001;48.87406500;9.59633600;2022-09-02T09:52:23;95098.94;;;20.94;51.40
2000;BME280;1001;48.87406500;9.59633600;2022-09-02T09:55:15;95106.59;;;20.82;50.43
2000;BME280;1001;48.87406500;9.59633600;2022-09-02T09:57:43;95099.13;;;20.84;54.18
2000;BME280;1001;48.87406500;9.59633600;2022-09-02T10:00:17;95095.53;;;20.75;48.43
2000;BME280;1001;48.87406500;9.59633600;2022-09-02T10:02:47;95099.03;;;20.57;47.39
2000;BME280;1001;48.87406500;9.59633600;2022-09-02T10:05:28;95094.63;;;20.98;49.24
2000;BME280;1001;48.87406500;9.59633600;2022-09-02T10:07:59;95088.03;;;20.96;48.55
2000;BME280;1001;48.87406500;9.59633600;2022-09-02T10:10:28;95087.09;;;20.87;46.77
2000;BME280;1001;48.87406500;9.59633600;2022-09-02T10:12:58;95097.59;;;20.65;47.55
2000;BME280;1001;48.87406500;9.59633600;2022-09-02T10:15:36;95095.59;;;20.57;46.52
2000;BME280;1001;48.87406500;9.59633600;2022-09-02T10:18:22;95090.38;;;20.97;49.73
2000;BME280;1001;48.87406500;9.59633600;2022-09-02T10:20:59;95095.69;;;20.97;46.53
2000;BME280;1001;48.87406500;9.59633600;2022-09-02T10:23:39;95088.75;;;21.15;47.06
2000;BME280;1001;48.87406500;9.59633600;2022-09-02T10:26:19;95084.13;;;21.07;47.77
2000;BME280;1001;48.87406500;9.59633600;2022-09-02T10:32:11;95071.47;;;20.99;46.50
2000;BME280;1001;48.87406500;9.59633600;2022-09-02T10:34:47;95078.66;;;20.98;46.56
2000;BME280;1001;48.87406500;9.59633600;2022-09-02T10:37:18;95083.22;;;21.12;46.97
2000;BME280;1001;48.87406500;9.59633600;2022-09-02T10:40:01;95075.56;;;21.10;44.35
2000;BME280;1001;48.87406500;9.59633600;2022-09-02T10:42:41;95090.50;;;21.06;47.04
2000;BME280;1001;48.87406500;9.59633600;2022-09-02T10:45:14;95080.28;;;21.27;46.02
2000;BME280;1001;48.87406500;9.59633600;2022-09-02T10:47:44;95071.81;;;21.25;45.46
2000;BME280;1001;48.87406500;9.59633600;2022-09-02T10:50:17;95069.81;;;21.30;46.22
2000;BME280;1001;48.87406500;9.59633600;2022-09-02T10:53:11;95075.06;;;21.22;48.13
2000;BME280;1001;48.87406500;9.59633600;2022-09-02T10:55:51;95061.84;;;21.44;47.32
2000;BME280;1001;48.87406500;9.59633600;2022-09-02T10:58:32;95058.13;;;21.31;47.26
2000;BME280;1001;48.87406500;9.59633600;2022-09-02T11:01:01;95053.38;;;21.42;46.35
2000;BME280;1001;48.87406500;9.59633600;2022-09-02T11:03:31;95053.75;;;21.49;44.21
2000;BME280;1001;48.87406500;9.59633600;2022-09-02T11:06:04;95044.19;;;21.61;44.76
2000;BME280;1001;48.87406500;9.59633600;2022-09-02T11:08:37;95046.22;;;21.78;46.24
2000;BME280;1001;48.87406500;9.59633600;2022-09-02T11:11:09;95044.25;;;21.70;44.91
2000;BME280;1001;48.87406500;9.59633600;2022-09-02T11:13:44;95046.53;;;21.63;46.94
2000;BME280;1001;48.87406500;9.59633600;2022-09-02T11:16:21;95041.97;;;21.77;46.77
2000;BME280;1001;48.87406500;9.59633600;2022-09-02T11:18:54;95040.88;;;21.78;44.71
2000;BME280;1001;48.87406500;9.59633600;2022-09-02T11:21:31;95047.44;;;21.72;43.76
2000;BME280;1001;48.87406500;9.59633600;2022-09-02T11:24:04;95038.81;;;21.89;46.91
2000;BME280;1001;48.87406500;9.59633600;2022-09-02T11:26:36;95041.66;;;21.92;46.64
2000;BME280;1001;48.87406500;9.59633600;2022-09-02T11:29:10;95030.91;;;21.97;44.67
2000;BME280;1001;48.87406500;9.59633600;2022-09-02T11:31:41;95033.72;;;22.14;45.69
2000;BME280;1001;48.87406500;9.59633600;2022-09-02T11:34:16;95018.63;;;22.10;41.48
2000;BME280;1001;48.87406500;9.59633600;2022-09-02T11:36:45;95027.06;;;21.90;43.88
2000;BME280;1001;48.87406500;9.59633600;2022-09-02T11:39:18;95027.56;;;21.78;42.52
2000;BME280;1001;48.87406500;9.59633600;2022-09-02T11:47:37;95026.16;;;21.94;43.43
2000;BME280;1001;48.87406500;9.59633600;2022-09-02T11:50:19;95040.09;;;22.13;45.72
2000;BME280;1001;48.87406500;9.59633600;2022-09-02T11:52:57;95027.88;;;22.12;43.66
2000;BME280;1001;48.87406500;9.59633600;2022-09-02T11:55:30;95033.72;;;22.14;43.74
2000;BME280;1001;48.87406500;9.59633600;2022-09-02T11:58:01;95027.81;;;22.04;42.18
2000;BME280;1001;48.87406500;9.59633600;2022-09-02T12:00:31;95033.09;;;22.17;44.49
2000;BME280;1001;48.87406500;9.59633600;2022-09-02T12:03:11;95027.19;;;22.29;42.58